CheckWX is a tool to help pilots better visualize weather data.  It is not intended as a substitute for an official pre-flight weather briefing.

12:24:59 UTC

EDHI TAF
Hamburg-Finkenwerder Airport
Hamburg, Germany
TAF EDHI 221100Z 2212/2221 17006KT 9999 SCT020

Mar-22@
12:00 UTC

Mar-22 @ 12:00 UTC

Mar-22@
21:00 UTC

Mar-22 @ 21:00 UTC

TAF EDHI 221100Z 2212/2221 17006KT 9999 SCT020
Wind
  • 170° at 6 KTS
Cloud Levels
  • Scattered at 2,000' AGL